createdAt,value
2019-01-19T00:00:21.734Z,7.20
2019-01-19T00:02:53.855Z,6.62
2019-01-19T00:05:37.546Z,6.85
2019-01-19T00:08:12.480Z,6.60
2019-01-19T00:11:00.963Z,6.83
2019-01-19T00:13:44.808Z,6.55
2019-01-19T00:16:19.822Z,6.37
2019-01-19T00:18:54.803Z,6.03
2019-01-19T00:21:41.441Z,6.30
2019-01-19T00:24:22.459Z,6.40
2019-01-19T00:27:09.248Z,6.85
2019-01-19T00:29:59.117Z,6.45
2019-01-19T00:32:59.601Z,6.35
2019-01-19T00:35:37.677Z,6.10
2019-01-19T00:38:34.947Z,6.60
2019-01-19T00:41:22.200Z,5.97
2019-01-19T00:43:54.325Z,6.55
2019-01-19T00:46:32.213Z,6.40
2019-01-19T00:49:04.309Z,5.83
2019-01-19T00:51:41.866Z,6.35
2019-01-19T00:54:19.186Z,5.50
2019-01-19T00:56:57.118Z,5.78
2019-01-19T00:59:28.558Z,5.78
2019-01-19T01:02:06.257Z,5.97
2019-01-19T01:04:43.261Z,5.92
2019-01-19T01:07:30.080Z,6.15
2019-01-19T01:10:02.177Z,5.72
2019-01-19T01:12:46.103Z,6.10
2019-01-19T01:15:32.925Z,6.12
2019-01-19T01:18:07.753Z,6.30
2019-01-19T01:20:45.650Z,6.00
2019-01-19T01:23:20.386Z,5.80
2019-01-19T01:25:58.068Z,5.60
2019-01-19T01:28:45.184Z,5.60
2019-01-19T01:31:23.179Z,5.97
2019-01-19T01:34:01.093Z,5.78
2019-01-19T01:36:47.473Z,5.65
2019-01-19T01:39:22.231Z,5.87
2019-01-19T01:42:26.732Z,6.05
2019-01-19T01:45:01.616Z,5.85
2019-01-19T01:47:45.270Z,5.45
2019-01-19T01:50:32.286Z,6.00
2019-01-19T01:53:21.738Z,5.90
2019-01-19T01:55:50.604Z,6.00
2019-01-19T01:58:22.721Z,5.53
2019-01-19T02:00:54.843Z,5.70
2019-01-19T02:03:32.683Z,5.92
2019-01-19T02:06:16.405Z,5.70
2019-01-19T02:09:21.750Z,6.25
2019-01-19T02:12:14.006Z,6.05
2019-01-19T02:14:57.820Z,5.08
2019-01-19T02:17:41.798Z,5.60
2019-01-19T02:20:16.848Z,5.58
2019-01-19T02:22:54.656Z,5.72
2019-01-19T02:25:29.629Z,5.80
2019-01-19T02:28:17.057Z,5.58
2019-01-19T02:30:55.019Z,5.83
2019-01-19T02:33:27.063Z,6.28
2019-01-19T02:36:10.666Z,5.72
2019-01-19T02:38:57.848Z,5.78
2019-01-19T02:41:35.405Z,6.22
2019-01-19T02:44:13.530Z,6.00
2019-01-19T02:46:48.396Z,5.53
2019-01-19T02:49:23.322Z,6.00
2019-01-19T02:51:58.213Z,5.45
2019-01-19T02:54:51.049Z,6.12
2019-01-19T02:57:31.866Z,6.10
2019-01-19T03:00:38.496Z,6.05
2019-01-19T03:03:19.473Z,5.62
2019-01-19T03:05:56.104Z,5.78
2019-01-19T03:08:33.799Z,5.85
2019-01-19T03:11:23.761Z,5.22
2019-01-19T03:14:12.091Z,5.83
2019-01-19T03:17:02.128Z,6.17
2019-01-19T03:19:39.769Z,6.30
2019-01-19T03:22:29.421Z,6.05
2019-01-19T03:25:03.993Z,6.10
2019-01-19T03:27:38.812Z,5.80
2019-01-19T03:30:27.325Z,6.20
2019-01-19T03:32:59.848Z,6.05
2019-01-19T03:35:31.956Z,6.08
2019-01-19T03:38:19.083Z,5.50
2019-01-19T03:40:51.116Z,5.25
2019-01-19T03:43:28.754Z,6.25
2019-01-19T03:46:15.515Z,5.60
2019-01-19T03:48:52.736Z,5.83
2019-01-19T03:51:30.598Z,6.15
2019-01-19T03:54:05.082Z,6.37
2019-01-19T03:56:42.474Z,6.30
2019-01-19T03:59:32.594Z,6.08
2019-01-19T04:02:19.560Z,6.08
2019-01-19T04:05:06.562Z,5.60
2019-01-19T04:07:44.358Z,5.75
2019-01-19T04:10:22.457Z,5.83
2019-01-19T04:13:03.426Z,5.95
2019-01-19T04:15:41.260Z,5.85
2019-01-19T04:18:34.162Z,6.55
2019-01-19T04:21:08.962Z,6.30
2019-01-19T04:23:39.270Z,6.55
2019-01-19T04:26:08.496Z,5.95
2019-01-19T04:28:37.649Z,5.85
2019-01-19T04:31:06.438Z,5.78
2019-01-19T04:33:35.222Z,5.85
2019-01-19T04:36:04.014Z,5.67
2019-01-19T04:38:34.560Z,5.85
2019-01-19T04:41:03.458Z,6.90
2019-01-19T04:43:32.308Z,6.33
2019-01-19T04:46:01.122Z,6.25
2019-01-19T04:48:30.171Z,6.17
2019-01-19T04:50:59.013Z,6.08
2019-01-19T04:53:27.784Z,6.53
2019-01-19T04:55:56.582Z,7.00
2019-01-19T04:58:25.443Z,6.33
2019-01-19T05:00:54.217Z,6.17
2019-01-19T05:03:22.989Z,6.40
2019-01-19T05:05:51.779Z,6.25
2019-01-19T05:08:20.569Z,6.35
2019-01-19T05:10:49.419Z,6.20
2019-01-19T05:13:18.290Z,6.33
2019-01-19T05:15:47.136Z,5.90
2019-01-19T05:18:15.912Z,6.28
2019-01-19T05:20:44.791Z,6.35
2019-01-19T05:23:13.576Z,5.75
2019-01-19T05:25:42.348Z,5.58
2019-01-19T05:28:11.137Z,6.17
2019-01-19T05:30:40.331Z,6.12
2019-01-19T05:33:09.192Z,6.50
2019-01-19T05:35:38.025Z,5.70
2019-01-19T05:38:06.846Z,6.72
2019-01-19T05:40:35.697Z,6.40
2019-01-19T05:43:04.482Z,6.20
2019-01-19T05:45:33.342Z,6.92
2019-01-19T05:48:02.110Z,5.75
2019-01-19T05:50:30.934Z,6.45
2019-01-19T05:52:59.813Z,6.53
2019-01-19T05:55:28.679Z,6.75
2019-01-19T05:57:57.548Z,6.17
2019-01-19T06:00:28.138Z,5.60
2019-01-19T06:02:56.940Z,5.92
2019-01-19T06:05:25.709Z,6.17
2019-01-19T06:07:54.541Z,6.55
2019-01-19T06:10:23.376Z,6.55
2019-01-19T06:12:52.286Z,5.80
2019-01-19T06:15:21.192Z,6.72
2019-01-19T06:17:50.017Z,6.22
2019-01-19T06:20:18.943Z,6.53
2019-01-19T06:22:47.725Z,6.87
2019-01-19T06:25:16.570Z,6.75
2019-01-19T06:27:45.513Z,6.25
2019-01-19T06:30:19.441Z,6.78
2019-01-19T06:32:48.298Z,5.97
2019-01-19T06:35:17.875Z,6.53
2019-01-19T06:37:46.712Z,5.78
2019-01-19T06:40:17.263Z,6.15
2019-01-19T06:42:46.095Z,5.97
2019-01-19T06:45:17.427Z,6.85
2019-01-19T06:47:46.227Z,6.12
2019-01-19T06:50:16.603Z,5.60
2019-01-19T06:52:45.425Z,6.47
2019-01-19T06:55:17.130Z,6.42
2019-01-19T06:57:45.972Z,6.28
2019-01-19T07:00:16.889Z,6.33
2019-01-19T07:02:45.823Z,6.67
2019-01-19T07:05:15.038Z,5.70
2019-01-19T07:07:43.812Z,6.00
2019-01-19T07:10:15.449Z,6.78
2019-01-19T07:12:44.238Z,5.50
2019-01-19T07:15:13.945Z,6.00
2019-01-19T07:17:42.842Z,5.87
2019-01-19T07:20:14.162Z,6.35
2019-01-19T07:22:42.954Z,5.97
2019-01-19T07:25:11.822Z,6.60
2019-01-19T07:27:40.684Z,5.25
2019-01-19T07:30:12.976Z,6.40
2019-01-19T07:32:41.841Z,6.10
2019-01-19T07:35:10.705Z,5.53
2019-01-19T07:37:39.522Z,5.75
2019-01-19T07:40:10.956Z,6.45
2019-01-19T07:42:41.289Z,5.83
2019-01-19T07:45:12.054Z,6.58
2019-01-19T07:47:41.784Z,5.92
2019-01-19T07:50:15.868Z,6.03
2019-01-19T07:52:44.710Z,5.72
2019-01-19T07:55:16.358Z,5.92
2019-01-19T07:57:45.249Z,6.40
2019-01-19T08:00:31.958Z,6.25
2019-01-19T08:03:00.739Z,6.00
2019-01-19T08:05:29.550Z,6.80
2019-01-19T08:07:58.429Z,7.37
2019-01-19T08:10:27.239Z,8.55
2019-01-19T08:12:56.012Z,9.73
2019-01-19T08:15:27.069Z,10.15
2019-01-19T08:17:55.878Z,10.08
2019-01-19T08:20:24.722Z,10.15
2019-01-19T08:22:53.617Z,9.05
2019-01-19T08:25:22.518Z,9.08
2019-01-19T08:27:51.289Z,8.45
2019-01-19T08:30:25.610Z,8.08
2019-01-19T08:32:54.453Z,8.53
2019-01-19T08:35:23.355Z,8.33
2019-01-19T08:37:52.198Z,8.38
2019-01-19T08:40:30.276Z,7.47
2019-01-19T08:43:06.446Z,8.13
2019-01-19T08:45:35.294Z,9.15
2019-01-19T08:48:04.391Z,10.28
2019-01-19T08:50:34.810Z,10.80
2019-01-19T08:53:03.604Z,11.68
2019-01-19T08:55:32.400Z,11.60
2019-01-19T08:58:01.222Z,12.45
2019-01-19T09:00:30.012Z,11.38
2019-01-19T09:02:58.784Z,11.63
2019-01-19T09:05:27.565Z,11.97
2019-01-19T09:07:56.360Z,12.35
2019-01-19T09:10:25.183Z,13.08
2019-01-19T09:12:54.657Z,13.43
2019-01-19T09:15:25.276Z,12.98
2019-01-19T09:17:54.184Z,12.95
2019-01-19T09:20:23.006Z,13.25
2019-01-19T09:22:53.816Z,12.43
2019-01-19T09:25:22.709Z,12.98
2019-01-19T09:27:51.571Z,13.05
2019-01-19T09:30:24.532Z,13.38
2019-01-19T09:32:53.548Z,12.70
2019-01-19T09:35:22.348Z,12.82
2019-01-19T09:37:51.255Z,12.55
2019-01-19T09:40:20.049Z,12.78
2019-01-19T09:42:48.833Z,11.88
2019-01-19T09:45:21.180Z,12.75
2019-01-19T09:47:49.956Z,13.28
2019-01-19T09:50:20.378Z,12.85
2019-01-19T09:52:49.164Z,13.08
2019-01-19T09:55:17.957Z,11.63
2019-01-19T09:57:46.922Z,11.43
2019-01-19T10:00:21.656Z,12.60
2019-01-19T10:02:50.493Z,11.97
2019-01-19T10:05:22.172Z,11.57
2019-01-19T10:07:51.142Z,12.03
2019-01-19T10:10:19.962Z,11.75
2019-01-19T10:12:48.871Z,11.50
2019-01-19T10:15:18.997Z,12.23
2019-01-19T10:17:47.873Z,9.95
2019-01-19T10:20:25.251Z,11.10
2019-01-19T10:22:54.156Z,10.95
2019-01-19T10:25:23.035Z,11.15
2019-01-19T10:27:51.818Z,10.63
2019-01-19T10:30:23.053Z,10.75
2019-01-19T10:32:51.843Z,10.82
2019-01-19T10:35:20.679Z,11.85
2019-01-19T10:37:56.332Z,10.98
2019-01-19T10:40:20.128Z,11.15
2019-01-19T10:42:48.989Z,10.65
2019-01-19T10:45:28.395Z,10.93
2019-01-19T10:47:57.436Z,10.82
2019-01-19T10:50:26.257Z,10.08
2019-01-19T10:52:55.109Z,10.40
2019-01-19T10:55:24.711Z,10.15
2019-01-19T10:57:53.486Z,10.85
2019-01-19T11:00:35.533Z,9.75
2019-01-19T11:03:05.388Z,10.10
2019-01-19T11:05:34.241Z,10.35
2019-01-19T11:08:04.272Z,9.73
2019-01-19T11:10:34.577Z,8.90
2019-01-19T11:13:03.421Z,9.60
2019-01-19T11:15:32.270Z,9.88
2019-01-19T11:18:01.074Z,9.03
2019-01-19T11:20:31.282Z,9.93
2019-01-19T11:23:01.122Z,10.60
2019-01-19T11:25:30.534Z,10.38
2019-01-19T11:27:59.354Z,10.90
2019-01-19T11:30:32.796Z,10.82
2019-01-19T11:33:01.577Z,10.35
2019-01-19T11:35:30.384Z,10.38
2019-01-19T11:37:59.274Z,10.10
2019-01-19T11:40:31.160Z,10.82
2019-01-19T11:42:59.954Z,9.28
2019-01-19T11:45:28.783Z,9.78
2019-01-19T11:47:57.615Z,9.60
2019-01-19T11:50:26.421Z,10.03
2019-01-19T11:52:55.327Z,8.65
2019-01-19T11:55:24.217Z,9.55
2019-01-19T11:57:55.615Z,9.45
2019-01-19T12:00:38.298Z,9.78
2019-01-19T12:03:07.449Z,12.07
2019-01-19T12:05:37.598Z,15.08
2019-01-19T12:08:07.465Z,12.95
2019-01-19T12:10:36.246Z,11.55
2019-01-19T12:13:05.047Z,12.37
2019-01-19T12:15:33.953Z,15.00
2019-01-19T12:18:02.818Z,16.48
2019-01-19T12:20:39.919Z,14.65
2019-01-19T12:23:09.544Z,14.90
2019-01-19T12:25:38.366Z,14.10
2019-01-19T12:28:07.221Z,14.38
2019-01-19T12:30:36.097Z,14.00
2019-01-19T12:33:05.530Z,14.43
2019-01-19T12:35:34.341Z,14.50
2019-01-19T12:38:03.541Z,13.83
2019-01-19T12:40:32.323Z,14.35
2019-01-19T12:43:04.424Z,13.98
2019-01-19T12:45:39.232Z,13.93
2019-01-19T12:48:08.080Z,15.00
2019-01-19T12:50:36.871Z,14.40
2019-01-19T12:53:05.678Z,14.53
2019-01-19T12:55:36.097Z,13.48
2019-01-19T12:58:06.223Z,14.03
2019-01-19T13:00:35.011Z,13.93
2019-01-19T13:03:04.280Z,13.60
2019-01-19T13:05:51.180Z,13.40
2019-01-19T13:08:26.187Z,12.93
2019-01-19T13:11:06.880Z,13.28
2019-01-19T13:13:38.326Z,12.10
2019-01-19T13:16:45.395Z,12.85
2019-01-19T13:19:26.427Z,12.20
2019-01-19T13:22:04.352Z,12.28
2019-01-19T13:24:54.279Z,12.40
2019-01-19T13:27:29.696Z,12.10
2019-01-19T13:30:13.583Z,12.00
2019-01-19T13:32:51.715Z,12.45
2019-01-19T13:35:56.775Z,12.07
2019-01-19T13:38:45.331Z,11.93
2019-01-19T13:41:35.074Z,11.95
2019-01-19T13:44:09.832Z,11.88
2019-01-19T13:46:50.437Z,11.73
2019-01-19T13:49:28.396Z,11.50
2019-01-19T13:52:06.067Z,11.03
2019-01-19T13:54:43.974Z,10.53
2019-01-19T13:57:22.183Z,10.45
2019-01-19T13:59:57.170Z,10.00
2019-01-19T14:03:02.735Z,10.68
2019-01-19T14:05:42.950Z,11.78
2019-01-19T14:08:20.786Z,10.35
2019-01-19T14:11:04.205Z,10.40
2019-01-19T14:13:42.024Z,10.55
2019-01-19T14:16:25.947Z,10.85
2019-01-19T14:19:19.790Z,9.75
2019-01-19T14:22:12.932Z,10.13
2019-01-19T14:25:11.329Z,9.70
2019-01-19T14:27:55.548Z,10.50
2019-01-19T14:30:35.984Z,9.63
2019-01-19T14:33:10.703Z,10.60
2019-01-19T14:35:58.978Z,9.95
2019-01-19T14:38:39.332Z,9.93
2019-01-19T14:41:17.028Z,10.45
2019-01-19T14:43:49.178Z,9.40
2019-01-19T14:49:50.784Z,9.20
2019-01-19T14:52:39.760Z,9.15
2019-01-19T14:55:33.886Z,8.45
2019-01-19T14:58:20.037Z,8.63
2019-01-19T15:01:08.402Z,8.45
2019-01-19T15:03:40.563Z,7.80
2019-01-19T15:06:18.567Z,8.20
2019-01-19T15:09:03.823Z,8.28
2019-01-19T15:11:35.561Z,7.47
2019-01-19T15:14:23.059Z,8.13
2019-01-19T15:17:14.577Z,7.95
2019-01-19T15:19:58.728Z,7.70
2019-01-19T15:22:33.574Z,7.87
2019-01-19T15:25:14.543Z,7.45
2019-01-19T15:27:49.210Z,7.22
2019-01-19T15:30:39.260Z,7.22
2019-01-19T15:33:26.485Z,7.42
2019-01-19T15:36:22.293Z,7.80
2019-01-19T15:38:54.494Z,7.47
2019-01-19T15:41:29.412Z,7.22
2019-01-19T15:44:22.222Z,7.70
2019-01-19T15:47:02.592Z,7.17
2019-01-19T15:49:57.010Z,7.62
2019-01-19T15:52:31.774Z,7.35
2019-01-19T15:55:15.630Z,7.67
2019-01-19T15:57:47.674Z,7.55
2019-01-19T16:00:22.158Z,7.22
2019-01-19T16:02:57.375Z,8.50
2019-01-19T16:06:03.819Z,7.80
2019-01-19T16:08:35.983Z,8.15
2019-01-19T16:11:19.477Z,8.83
2019-01-19T16:14:15.846Z,8.73
2019-01-19T16:17:07.066Z,8.35
2019-01-19T16:19:58.683Z,8.60
2019-01-19T16:22:54.141Z,8.63
2019-01-19T16:25:35.104Z,8.48
2019-01-19T16:28:22.060Z,8.05
2019-01-19T16:31:12.205Z,7.95
2019-01-19T16:33:59.269Z,8.28
2019-01-19T16:36:34.225Z,7.85
2019-01-19T16:39:09.158Z,7.97
2019-01-19T16:41:56.007Z,8.48
2019-01-19T16:44:28.085Z,7.75
2019-01-19T16:47:02.695Z,8.38
2019-01-19T16:49:43.696Z,8.03
2019-01-19T16:52:21.333Z,8.35
2019-01-19T16:54:56.327Z,7.47
2019-01-19T16:57:34.565Z,7.85
2019-01-19T17:00:38.235Z,7.42
2019-01-19T17:03:11.809Z,8.08
2019-01-19T17:05:43.923Z,8.10
2019-01-19T17:08:28.049Z,8.60
2019-01-19T17:11:09.049Z,8.43
2019-01-19T17:13:57.325Z,8.93
2019-01-19T17:16:34.805Z,9.58
2019-01-19T17:19:09.795Z,9.53
2019-01-19T17:21:58.382Z,9.23
2019-01-19T17:24:33.259Z,9.33
2019-01-19T17:27:21.866Z,9.30
2019-01-19T17:30:10.508Z,9.30
2019-01-19T17:32:45.067Z,8.70
2019-01-19T17:35:28.556Z,8.98
2019-01-19T17:38:00.692Z,9.43
2019-01-19T17:40:41.594Z,9.73
2019-01-19T17:43:22.053Z,9.98
2019-01-19T17:45:56.904Z,10.10
2019-01-19T17:48:31.763Z,11.95
2019-01-19T17:51:31.192Z,14.20
2019-01-19T17:54:18.197Z,15.98
2019-01-19T17:57:15.748Z,17.57
2019-01-19T17:59:53.506Z,19.25
2019-01-19T18:02:41.693Z,20.75
2019-01-19T18:05:16.580Z,20.02
2019-01-19T18:07:51.080Z,21.52
2019-01-19T18:10:34.613Z,20.62
2019-01-19T18:13:06.673Z,21.45
2019-01-19T18:15:59.358Z,21.12
2019-01-19T18:18:40.157Z,22.07
2019-01-19T18:21:21.155Z,20.82
2019-01-19T18:24:01.979Z,20.55
2019-01-19T18:26:36.581Z,20.15
2019-01-19T18:29:20.326Z,18.98
2019-01-19T18:31:55.133Z,18.95
2019-01-19T18:34:30.087Z,20.12
2019-01-19T18:37:14.052Z,20.32
2019-01-19T18:39:46.211Z,18.80
2019-01-19T18:42:27.561Z,19.30
2019-01-19T18:45:08.390Z,18.12
2019-01-19T18:47:43.156Z,18.20
2019-01-19T18:50:33.014Z,17.80
2019-01-19T18:53:13.846Z,17.17
2019-01-19T18:55:51.538Z,17.90
2019-01-19T18:58:35.129Z,16.95
2019-01-19T19:01:25.039Z,16.95
2019-01-19T19:04:13.811Z,16.07
2019-01-19T19:06:51.651Z,15.93
2019-01-19T19:09:40.309Z,17.07
2019-01-19T19:12:21.356Z,16.75
2019-01-19T19:15:09.970Z,16.42
2019-01-19T19:17:56.945Z,16.48
2019-01-19T19:20:37.803Z,15.75
2019-01-19T19:23:12.493Z,16.65
2019-01-19T19:26:11.927Z,15.25
2019-01-19T19:28:55.805Z,16.17
2019-01-19T19:31:30.871Z,15.80
2019-01-19T19:34:05.623Z,16.62
2019-01-19T19:36:49.519Z,15.93
2019-01-19T19:39:39.443Z,15.58
2019-01-19T19:42:35.530Z,16.45
2019-01-19T19:45:16.396Z,15.98
2019-01-19T19:48:16.746Z,16.05
2019-01-19T19:50:48.908Z,15.63
2019-01-19T19:53:17.710Z,16.85
2019-01-19T19:55:45.999Z,15.93
2019-01-19T19:58:14.805Z,16.20
2019-01-19T20:00:43.687Z,16.45
2019-01-19T20:03:12.583Z,14.93
2019-01-19T20:05:42.776Z,15.48
2019-01-19T20:08:11.583Z,15.13
2019-01-19T20:10:40.380Z,15.98
2019-01-19T20:13:09.215Z,15.05
2019-01-19T20:15:38.060Z,15.03
2019-01-19T20:18:07.416Z,15.65
2019-01-19T20:20:36.253Z,14.93
2019-01-19T20:23:05.188Z,14.68
2019-01-19T20:25:35.119Z,14.47
2019-01-19T20:28:03.945Z,14.83
2019-01-19T20:30:32.782Z,14.75
2019-01-19T20:33:01.644Z,14.05
2019-01-19T20:35:30.431Z,14.03
2019-01-19T20:37:59.221Z,13.90
2019-01-19T20:40:28.029Z,13.20
2019-01-19T20:42:56.884Z,14.30
2019-01-19T20:45:25.753Z,14.23
2019-01-19T20:47:54.619Z,14.47
2019-01-19T20:50:23.420Z,13.38
2019-01-19T20:52:52.272Z,14.23
2019-01-19T20:55:21.515Z,13.68
2019-01-19T20:57:50.302Z,12.63
2019-01-19T21:00:19.841Z,14.58
2019-01-19T21:02:48.723Z,13.72
2019-01-19T21:05:17.593Z,13.65
2019-01-19T21:07:46.385Z,14.00
2019-01-19T21:10:15.234Z,14.25
2019-01-19T21:12:44.031Z,14.05
2019-01-19T21:15:15.414Z,15.38
2019-01-19T21:17:44.489Z,14.65
2019-01-19T21:20:15.079Z,14.38
2019-01-19T21:22:43.952Z,14.23
2019-01-19T21:25:13.414Z,13.95
2019-01-19T21:27:42.198Z,14.45
2019-01-19T21:30:13.947Z,14.73
2019-01-19T21:32:42.736Z,15.10
2019-01-19T21:35:11.853Z,14.95
2019-01-19T21:37:40.732Z,14.68
2019-01-19T21:40:12.316Z,14.45
2019-01-19T21:42:41.227Z,16.45
2019-01-19T21:45:13.337Z,16.35
2019-01-19T21:47:42.181Z,15.75
2019-01-19T21:50:12.166Z,15.75
2019-01-19T21:52:40.969Z,15.68
2019-01-19T21:55:10.239Z,15.28
2019-01-19T21:57:39.099Z,16.55
2019-01-19T22:00:19.235Z,16.07
2019-01-19T22:02:48.086Z,15.20
2019-01-19T22:05:16.934Z,16.40
2019-01-19T22:07:45.737Z,15.55
2019-01-19T22:10:19.786Z,15.85
2019-01-19T22:12:48.733Z,15.18
2019-01-19T22:15:18.748Z,16.00
2019-01-19T22:17:47.594Z,16.67
2019-01-19T22:20:17.901Z,16.48
2019-01-19T22:22:46.686Z,15.80
2019-01-19T22:25:15.618Z,15.90
2019-01-19T22:27:48.117Z,16.37
2019-01-19T22:30:19.427Z,16.30
2019-01-19T22:32:50.123Z,17.23
2019-01-19T22:35:18.932Z,15.48
2019-01-19T22:37:47.797Z,17.05
2019-01-19T22:40:18.229Z,16.35
2019-01-19T22:42:47.754Z,17.48
2019-01-19T22:45:17.476Z,17.10
2019-01-19T22:47:46.259Z,17.87
2019-01-19T22:50:17.521Z,18.52
2019-01-19T22:52:46.434Z,17.12
2019-01-19T22:55:15.302Z,17.90
2019-01-19T22:57:44.087Z,18.32
2019-01-19T23:00:57.451Z,17.45
2019-01-19T23:03:27.432Z,18.23
2019-01-19T23:05:56.236Z,18.80
2019-01-19T23:08:25.168Z,18.67
2019-01-19T23:11:00.931Z,19.30
2019-01-19T23:13:24.422Z,18.82
2019-01-19T23:15:53.215Z,18.75
2019-01-19T23:18:21.993Z,19.20
2019-01-19T23:20:50.862Z,18.85
2019-01-19T23:23:19.755Z,18.85
2019-01-19T23:25:48.585Z,19.55
2019-01-19T23:28:17.446Z,19.23
2019-01-19T23:30:46.305Z,19.55
2019-01-19T23:33:15.101Z,19.45
2019-01-19T23:35:43.934Z,19.17
2019-01-19T23:38:12.697Z,19.92
2019-01-19T23:40:41.502Z,19.05
2019-01-19T23:43:10.379Z,19.15
2019-01-19T23:45:39.731Z,19.07
2019-01-19T23:48:08.521Z,20.55
2019-01-19T23:50:37.414Z,19.15
2019-01-19T23:53:06.207Z,19.92
2019-01-19T23:55:35.189Z,19.25
2019-01-19T23:58:04.083Z,19.37
